Hamburg, Louisiana
Current Conditions -  °F | °C
As of 7:15 PM on Friday 28 Nov 2014 (Local Time) from KOPL Reporting Station
Clear Clear  
Wind Chill: 11°   Ceiling: Unl
Heat Index: 11°   Visibility: 10mi
Dew Point:   Wind: 6mph
Humidity: 86%   Direction: 160°SSE
Pressure: 30.24"   Gusts: NA
Location:  31.03°N, 91.93°W
Report Text: KOPL 290115Z AUTO 16005KT 10SM CLR 11/09 A3024 RMK AO2 T01130090
Loading
Personal Weather Stations






























Interactive Weather Map New forecast layout! Learn more

10-Day Weather Forecast

Advertisements
Track Severe Weather on mobile